Time;durP1;ratioP1;P1;durP2;ratioP2;P2;SDS_P1;SDS_P2;PMS_P1;PMS_P2;Temp;Humidity;BMP_temperature;BMP_pressure;BME280_temperature;BME280_humidity;BME280_pressure;Samples;Min_cycle;Max_cycle;Signal;HPM_P1;HPM_P2
2022/04/30 00:01:06;;;;;;;414.60;294.20;;;;;;;7.11;100.00;99345.53;5038509;28;20037;-65
2022/04/30 00:03:31;;;;;;;411.63;300.43;;;;;;;7.06;100.00;99346.31;5038476;28;20527;-66
2022/04/30 00:05:57;;;;;;;408.50;297.13;;;;;;;7.04;100.00;99343.78;5041812;28;20033;-64
2022/04/30 00:08:24;;;;;;;417.67;296.73;;;;;;;6.99;100.00;99337.81;5039813;28;20634;-64
2022/04/30 00:10:50;;;;;;;471.90;285.73;;;;;;;6.87;100.00;99328.34;5038004;28;20036;-65
2022/04/30 00:13:16;;;;;;;489.27;279.03;;;;;;;6.89;100.00;99333.47;5042559;28;20091;-66
2022/04/30 00:15:41;;;;;;;488.63;282.67;;;;;;;6.85;100.00;99337.69;5040591;28;20526;-64
2022/04/30 00:18:08;;;;;;;486.83;274.47;;;;;;;6.81;100.00;99335.97;5042159;28;20099;-62
2022/04/30 00:20:36;;;;;;;486.27;284.73;;;;;;;6.81;100.00;99330.03;5042947;28;20395;-65
2022/04/30 00:23:03;;;;;;;403.10;289.03;;;;;;;6.74;100.00;99331.69;5016141;28;20510;-65
2022/04/30 00:25:29;;;;;;;410.43;285.97;;;;;;;6.82;100.00;99331.72;5045898;28;20031;-65
2022/04/30 00:27:54;;;;;;;415.23;296.47;;;;;;;6.91;100.00;99334.34;5042861;28;20029;-64
2022/04/30 00:30:20;;;;;;;440.43;289.90;;;;;;;6.90;100.00;99332.63;5044101;28;20021;-64
2022/04/30 00:32:48;;;;;;;403.97;280.07;;;;;;;6.93;100.00;99335.19;5046487;28;20521;-65
2022/04/30 00:35:14;;;;;;;408.57;278.07;;;;;;;6.87;100.00;99327.53;5045660;28;20465;-64
2022/04/30 00:37:40;;;;;;;452.97;271.33;;;;;;;6.80;100.00;99318.97;5041677;28;20111;-65
2022/04/30 00:40:07;;;;;;;404.80;278.73;;;;;;;6.78;100.00;99324.91;5044177;28;20052;-65
2022/04/30 00:42:33;;;;;;;404.83;264.73;;;;;;;6.70;100.00;99316.34;5042402;28;20033;-65
2022/04/30 00:44:58;;;;;;;410.97;268.53;;;;;;;6.65;100.00;99318.00;5040890;28;20060;-65
2022/04/30 00:47:26;;;;;;;418.13;271.17;;;;;;;6.59;100.00;99312.84;5041475;28;20043;-62
2022/04/30 00:49:52;;;;;;;426.53;279.87;;;;;;;6.57;100.00;99309.47;5044202;28;20052;-64
2022/04/30 00:52:18;;;;;;;400.33;262.03;;;;;;;6.54;100.00;99309.41;5046131;28;20051;-64
2022/04/30 00:54:49;;;;;;;409.70;267.37;;;;;;;6.51;100.00;99309.41;5044591;28;20033;-64
2022/04/30 00:57:18;;;;;;;405.33;265.93;;;;;;;6.42;100.00;99300.84;5042076;28;20106;-64
2022/04/30 00:59:45;;;;;;;403.13;277.23;;;;;;;6.36;100.00;99295.72;5041337;28;20056;-63
2022/04/30 01:02:11;;;;;;;404.50;273.60;;;;;;;6.40;100.00;99302.53;5042436;28;20211;-63
2022/04/30 01:04:37;;;;;;;406.07;261.10;;;;;;;6.42;100.00;99305.09;5041838;28;20585;-63
2022/04/30 01:07:07;;;;;;;410.97;268.93;;;;;;;6.45;100.00;99301.72;5041630;28;20033;-64
2022/04/30 01:09:38;;;;;;;409.70;272.10;;;;;;;6.47;100.00;99307.66;5042920;28;20151;-65
2022/04/30 01:12:09;;;;;;;411.37;260.80;;;;;;;6.51;100.00;99296.66;5042462;28;20037;-64
2022/04/30 01:14:35;;;;;;;401.57;255.73;;;;;;;6.44;100.00;99290.69;5040721;28;20057;-65
2022/04/30 01:17:06;;;;;;;400.37;253.97;;;;;;;6.36;100.00;99288.09;5042335;28;20040;-64
2022/04/30 01:19:36;;;;;;;398.93;251.37;;;;;;;6.34;100.00;99288.88;5045462;28;20542;-63
2022/04/30 01:22:08;;;;;;;404.03;251.87;;;;;;;6.35;100.00;99288.91;5044543;28;20029;-65
2022/04/30 01:24:35;;;;;;;399.37;261.53;;;;;;;6.37;100.00;99287.22;5040777;28;20040;-65
2022/04/30 01:27:01;;;;;;;399.90;267.23;;;;;;;6.37;100.00;99288.91;5040391;28;20025;-66
2022/04/30 01:29:30;;;;;;;404.73;273.20;;;;;;;6.31;100.00;99277.00;5041008;28;20036;-65
2022/04/30 01:37:27;;;;;;;393.27;258.77;;;;;;;6.34;100.00;99281.25;5044538;28;20116;-65
2022/04/30 01:40:09;;;;;;;392.47;249.13;;;;;;;6.32;100.00;99280.41;5045107;28;20029;-65
2022/04/30 01:42:38;;;;;;;394.43;253.67;;;;;;;6.30;100.00;99282.91;5040843;28;20191;-64
2022/04/30 01:45:05;;;;;;;396.23;276.03;;;;;;;6.28;100.00;99279.50;5020359;28;20559;-64
2022/04/30 01:47:33;;;;;;;395.93;257.07;;;;;;;6.24;100.00;99280.31;5042102;28;20040;-63
2022/04/30 01:50:00;;;;;;;480.63;257.13;;;;;;;6.18;100.00;99272.63;5040290;28;20784;-65
2022/04/30 01:52:25;;;;;;;480.23;250.60;;;;;;;6.21;100.00;99272.66;5041546;28;20033;-64
2022/04/30 01:54:51;;;;;;;477.43;259.63;;;;;;;6.23;100.00;99275.22;5041492;28;20033;-64
2022/04/30 01:57:23;;;;;;;478.47;258.53;;;;;;;6.27;100.00;99269.31;5045230;28;20658;-65
2022/04/30 01:59:51;;;;;;;473.83;246.90;;;;;;;6.19;100.00;99261.63;5044472;28;20033;-64
2022/04/30 02:02:18;;;;;;;481.43;261.70;;;;;;;6.20;100.00;99270.09;5039938;28;20087;-64
2022/04/30 02:04:44;;;;;;;477.17;246.60;;;;;;;6.22;100.00;99269.28;5040840;28;20039;-65
2022/04/30 02:07:10;;;;;;;476.67;243.73;;;;;;;6.16;100.00;99265.81;5040533;28;20029;-64
2022/04/30 02:09:36;;;;;;;479.03;256.60;;;;;;;6.15;100.00;99259.91;5041363;28;20029;-65
2022/04/30 02:12:02;;;;;;;478.60;259.07;;;;;;;6.19;100.00;99268.41;5040065;28;20036;-65
2022/04/30 02:14:30;;;;;;;471.90;239.00;;;;;;;6.16;100.00;99271.75;5041525;28;20080;-65
2022/04/30 02:16:57;;;;;;;476.40;259.73;;;;;;;6.13;100.00;99255.59;5044442;28;20052;-65
2022/04/30 02:19:26;;;;;;;476.90;260.73;;;;;;;6.16;100.00;99255.63;5041769;28;20037;-64
2022/04/30 02:21:52;;;;;;;475.43;253.23;;;;;;;6.09;100.00;99251.34;5040705;28;20459;-64
2022/04/30 02:24:18;;;;;;;478.27;240.47;;;;;;;6.05;100.00;99253.00;5038842;28;20032;-64
2022/04/30 02:26:43;;;;;;;477.13;246.73;;;;;;;6.09;100.00;99251.34;5039493;28;20033;-64
2022/04/30 02:29:10;;;;;;;473.07;238.30;;;;;;;6.08;100.00;99250.47;5039937;28;20478;-64
2022/04/30 02:31:36;;;;;;;474.97;236.20;;;;;;;6.09;100.00;99248.78;5040179;28;20037;-64
2022/04/30 02:34:02;;;;;;;468.73;227.67;;;;;;;6.10;100.00;99250.50;5043615;28;20364;-64
2022/04/30 02:36:27;;;;;;;471.83;227.87;;;;;;;6.08;100.00;99249.63;5043288;28;20060;-66
2022/04/30 02:38:54;;;;;;;475.13;234.77;;;;;;;5.95;100.00;99241.03;5038587;28;20124;-64
2022/04/30 02:41:21;;;;;;;469.03;222.63;;;;;;;5.94;100.00;99240.16;5040783;28;20032;-65
2022/04/30 02:43:48;;;;;;;471.53;226.77;;;;;;;6.00;100.00;99241.94;5043413;28;20116;-64
2022/04/30 02:46:14;;;;;;;476.17;234.77;;;;;;;6.03;100.00;99233.44;5043148;28;20041;-62
2022/04/30 02:48:40;;;;;;;473.57;229.83;;;;;;;5.95;100.00;99243.56;5039329;28;20044;-63
2022/04/30 02:51:05;;;;;;;469.30;225.67;;;;;;;5.85;100.00;99237.53;5040655;28;20040;-64
2022/04/30 02:53:31;;;;;;;472.80;232.00;;;;;;;5.83;100.00;99236.66;5043432;28;20025;-64
2022/04/30 02:55:56;;;;;;;475.50;234.43;;;;;;;5.76;100.00;99232.34;5039507;28;20029;-63
2022/04/30 03:01:16;;;;;;;467.77;211.77;;;;;;;5.83;100.00;99231.56;4982848;28;20148;-64
2022/04/30 03:03:42;;;;;;;471.07;220.90;;;;;;;5.96;100.00;99223.22;4967155;28;20444;-64
2022/04/30 03:06:09;;;;;;;474.90;224.77;;;;;;;5.90;100.00;99225.72;4981610;28;20050;-64
2022/04/30 03:08:35;;;;;;;471.27;218.77;;;;;;;5.99;100.00;99230.03;4980803;28;21030;-64
2022/04/30 03:11:03;;;;;;;387.10;225.37;;;;;;;5.84;100.00;99228.19;4982305;28;20220;-63
2022/04/30 03:13:28;;;;;;;358.83;219.63;;;;;;;5.71;100.00;99225.50;4983331;28;20720;-64
2022/04/30 03:15:55;;;;;;;361.53;222.07;;;;;;;5.61;100.00;99216.91;4980961;28;20497;-63
2022/04/30 03:23:51;;;;;;;;;;;;;;;5.68;100.00;99228.03;4982772;28;20122;-63
2022/04/30 03:26:19;;;;;;;357.63;209.53;;;;;;;5.60;100.00;99225.38;4979256;28;19918;-64
2022/04/30 03:28:45;;;;;;;354.23;207.83;;;;;;;5.51;100.00;99225.31;4981016;28;20037;-62
2022/04/30 03:31:11;;;;;;;358.23;211.63;;;;;;;5.50;100.00;99221.06;4983292;28;20042;-63
2022/04/30 03:33:37;;;;;;;371.47;225.10;;;;;;;5.49;100.00;99226.97;4981901;28;20044;-65
2022/04/30 03:36:03;;;;;;;351.93;212.77;;;;;;;5.51;100.00;99220.22;4978746;28;20026;-64
2022/04/30 03:38:29;;;;;;;346.47;205.00;;;;;;;5.66;100.00;99227.13;5013274;28;20412;-64
2022/04/30 03:40:54;;;;;;;348.20;204.97;;;;;;;5.64;100.00;99228.84;5023533;28;20032;-64
2022/04/30 03:43:20;;;;;;;350.40;208.17;;;;;;;5.65;100.00;99226.28;5021590;28;20033;-64
2022/04/30 03:45:46;;;;;;;351.77;214.77;;;;;;;5.61;100.00;99222.00;5018068;28;20034;-63
2022/04/30 03:48:14;;;;;;;343.47;207.70;;;;;;;5.62;100.00;99230.50;5021946;28;20045;-65
2022/04/30 03:50:42;;;;;;;338.70;202.40;;;;;;;5.64;100.00;99231.38;5024639;28;20038;-65
2022/04/30 03:53:08;;;;;;;357.20;215.00;;;;;;;5.72;100.00;99230.63;5024061;28;20103;-65
2022/04/30 03:55:33;;;;;;;352.70;211.67;;;;;;;5.58;100.00;99233.84;5022719;28;20460;-64
2022/04/30 03:57:59;;;;;;;465.67;209.50;;;;;;;5.51;100.00;99228.72;5025741;28;20474;-63
2022/04/30 04:00:24;;;;;;;466.60;212.67;;;;;;;5.49;100.00;99224.44;5027089;28;20482;-64
2022/04/30 04:02:50;;;;;;;469.40;213.70;;;;;;;5.52;100.00;99224.44;5022709;28;20030;-64
2022/04/30 04:05:17;;;;;;;472.87;218.53;;;;;;;5.51;100.00;99233.78;5021343;28;20484;-64
2022/04/30 04:07:43;;;;;;;475.33;220.73;;;;;;;5.54;100.00;99238.06;5037388;28;20037;-64
2022/04/30 04:10:11;;;;;;;467.03;211.03;;;;;;;5.53;100.00;99234.66;5025178;28;20030;-65
2022/04/30 04:12:37;;;;;;;472.97;220.03;;;;;;;5.56;100.00;99230.44;5023225;28;20082;-65
2022/04/30 04:17:50;;;;;;;461.67;205.10;;;;;;;5.63;100.00;99235.59;5043666;28;20040;-64
2022/04/30 04:20:18;;;;;;;472.53;216.40;;;;;;;5.63;100.00;99225.44;5045564;28;20029;-64
2022/04/30 04:22:43;;;;;;;471.17;219.63;;;;;;;5.67;100.00;99224.63;5042122;28;20475;-65
2022/04/30 04:27:58;;;;;;;472.03;219.77;;;;;;;5.80;100.00;99225.59;5041914;28;20490;-64
2022/04/30 04:30:29;;;;;;;470.90;218.23;;;;;;;5.88;100.00;99231.63;5042570;28;20082;-64
2022/04/30 04:32:56;;;;;;;447.40;222.27;;;;;;;5.96;100.00;99240.19;5041557;28;20823;-64
2022/04/30 04:35:21;;;;;;;339.50;214.43;;;;;;;6.01;100.00;99224.97;5042181;28;20101;-62
2022/04/30 04:37:47;;;;;;;339.07;218.03;;;;;;;6.06;100.00;99239.44;5042146;28;20129;-64
2022/04/30 04:40:14;;;;;;;341.87;223.43;;;;;;;6.22;100.00;99232.78;5041562;28;20153;-62
2022/04/30 04:42:40;;;;;;;341.50;214.20;;;;;;;6.19;100.00;99233.63;5042197;28;20431;-64
2022/04/30 04:45:07;;;;;;;337.83;217.33;;;;;;;6.20;100.00;99234.44;5045306;28;20025;-63
2022/04/30 04:47:41;;;;;;;338.13;225.37;;;;;;;6.27;100.00;99239.63;5045169;28;20570;-61
2022/04/30 04:50:12;;;;;;;350.63;232.97;;;;;;;6.30;100.00;99241.31;5040002;28;20040;-62
2022/04/30 04:52:38;;;;;;;351.70;232.57;;;;;;;6.34;100.00;99241.38;5042772;28;20063;-62
2022/04/30 04:55:04;;;;;;;337.53;227.37;;;;;;;6.39;100.00;99236.31;5045026;28;20025;-63
2022/04/30 04:57:30;;;;;;;338.40;229.80;;;;;;;6.42;100.00;99241.41;5046183;28;20029;-63
2022/04/30 04:59:56;;;;;;;344.10;235.17;;;;;;;6.48;100.00;99238.06;5040405;28;20505;-63
2022/04/30 05:02:22;;;;;;;342.77;235.43;;;;;;;6.50;100.00;99241.47;5040546;28;20029;-63
2022/04/30 05:04:47;;;;;;;336.10;233.33;;;;;;;6.60;100.00;99238.16;5046382;28;20029;-63
2022/04/30 05:07:13;;;;;;;338.37;237.53;;;;;;;6.78;100.00;99244.22;5044466;28;20095;-64
2022/04/30 05:09:38;;;;;;;346.17;246.83;;;;;;;6.86;100.00;99242.56;5040605;28;20037;-62
2022/04/30 05:12:04;;;;;;;346.50;247.00;;;;;;;7.02;100.00;99238.38;5042366;28;20037;-63
2022/04/30 05:14:33;;;;;;;342.27;240.90;;;;;;;7.12;100.00;99240.16;5044758;28;20128;-63
2022/04/30 05:17:03;;;;;;;345.50;244.97;;;;;;;7.21;100.00;99235.06;5043086;28;20478;-63
2022/04/30 05:19:29;;;;;;;340.57;248.63;;;;;;;7.28;100.00;99231.72;5039224;28;20033;-63
2022/04/30 05:21:55;;;;;;;354.13;251.10;;;;;;;7.48;100.00;99236.00;5043068;28;20501;-63
2022/04/30 05:24:20;;;;;;;354.73;258.30;;;;;;;7.53;100.00;99240.28;5045042;28;20536;-63
2022/04/30 05:26:47;;;;;;;362.83;258.43;;;;;;;7.56;100.00;99237.75;5043180;28;20586;-62
2022/04/30 05:29:13;;;;;;;356.93;268.07;;;;;;;7.58;100.00;99235.19;5040803;28;20112;-62
2022/04/30 05:31:38;;;;;;;355.27;261.17;;;;;;;7.63;100.00;99239.47;5043925;28;20040;-62
2022/04/30 05:34:04;;;;;;;356.17;263.73;;;;;;;7.65;100.00;99250.53;5044970;28;20036;-64
2022/04/30 05:36:29;;;;;;;337.93;269.67;;;;;;;7.74;100.00;99252.25;5042481;28;20040;-62
2022/04/30 05:38:54;;;;;;;340.27;268.47;;;;;;;7.79;100.00;99242.91;5041224;28;20025;-63
2022/04/30 05:41:20;;;;;;;329.63;282.30;;;;;;;7.90;100.00;99250.56;5040875;28;20602;-63
2022/04/30 05:43:45;;;;;;;331.33;288.40;;;;;;;7.99;100.00;99253.13;5039750;28;20068;-62
2022/04/30 05:46:12;;;;;;;320.43;283.60;;;;;;;7.99;100.00;99251.44;5039145;28;20191;-60
2022/04/30 05:48:37;;;;;;;316.17;277.43;;;;;;;7.98;100.00;99256.53;5041307;28;20032;-61
2022/04/30 05:51:03;;;;;;;313.93;278.97;;;;;;;8.08;100.00;99253.16;5044775;28;20044;-62
2022/04/30 05:53:28;;;;;;;317.67;274.00;;;;;;;8.24;100.00;99258.28;5044578;28;20523;-61
2022/04/30 05:55:54;;;;;;;336.27;300.40;;;;;;;8.40;100.00;99256.59;5041506;28;20438;-63
2022/04/30 05:58:19;;;;;;;327.93;292.20;;;;;;;8.60;100.00;99259.16;5041220;28;20024;-61
2022/04/30 06:00:45;;;;;;;324.97;289.53;;;;;;;8.68;100.00;99250.63;5044632;28;20298;-63
2022/04/30 06:03:10;;;;;;;331.77;295.87;;;;;;;8.72;100.00;99243.78;5044256;28;20102;-64
2022/04/30 06:05:37;;;;;;;340.70;304.37;;;;;;;8.84;100.00;99243.75;5040778;28;20033;-64
2022/04/30 06:08:05;;;;;;;333.77;298.30;;;;;;;8.93;100.00;99248.88;5041142;28;20029;-62
2022/04/30 06:10:31;;;;;;;358.67;320.43;;;;;;;9.12;100.00;99244.56;5039580;28;20651;-63
2022/04/30 06:12:57;;;;;;;369.97;330.83;;;;;;;9.33;100.00;99241.06;5022210;28;20025;-63
2022/04/30 06:15:22;;;;;;;369.20;326.77;;;;;;;9.46;100.00;99230.75;5040521;28;20061;-62
2022/04/30 06:17:48;;;;;;;362.07;321.63;;;;;;;9.69;100.00;99235.75;5044397;28;20063;-62
2022/04/30 06:20:13;;;;;;;379.07;338.93;;;;;;;9.87;100.00;99227.09;5043823;28;20554;-63
2022/04/30 06:22:40;;;;;;;390.67;349.17;;;;;;;10.06;100.00;99226.94;5043040;28;20033;-63
2022/04/30 06:25:06;;;;;;;397.93;358.30;;;;;;;10.27;100.00;99222.59;5039743;28;20029;-64
2022/04/30 06:27:32;;;;;;;397.40;358.70;;;;;;;10.30;100.00;99217.41;5040454;28;20080;-64
2022/04/30 06:29:58;;;;;;;414.67;374.73;;;;;;;10.45;100.00;99222.41;5044052;28;20179;-63
2022/04/30 06:32:24;;;;;;;421.20;380.27;;;;;;;10.66;98.61;99222.19;5042466;28;20461;-63
2022/04/30 06:34:49;;;;;;;429.63;389.83;;;;;;;10.83;99.13;99222.88;5039926;28;20510;-63
2022/04/30 06:37:16;;;;;;;426.00;386.27;;;;;;;11.04;94.04;99218.38;5043029;28;20036;-64
2022/04/30 06:39:42;;;;;;;448.83;408.77;;;;;;;11.29;88.37;99218.06;5044179;28;20029;-63
2022/04/30 06:42:08;;;;;;;457.40;416.37;;;;;;;11.54;85.29;99222.91;5040935;28;20443;-63
2022/04/30 06:44:34;;;;;;;458.93;419.90;;;;;;;11.73;85.50;99217.50;5039451;28;20029;-63
2022/04/30 06:46:59;;;;;;;464.50;425.70;;;;;;;11.97;83.89;99221.44;5043195;28;20040;-63
2022/04/30 06:49:24;;;;;;;496.33;456.43;;;;;;;12.19;79.62;99224.50;5044564;28;20033;-59
2022/04/30 06:51:50;;;;;;;497.53;457.90;;;;;;;12.32;77.72;99219.16;5040325;28;20033;-61
2022/04/30 06:57:10;;;;;;;514.87;475.17;;;;;;;12.60;76.33;99211.81;5043718;28;20097;-60
2022/04/30 06:59:41;;;;;;;525.43;484.67;;;;;;;12.68;76.73;99207.41;5043844;28;20519;-61
2022/04/30 07:02:12;;;;;;;541.53;500.95;;;;;;;12.60;76.11;99210.97;5038775;28;20087;-60
2022/04/30 07:04:39;;;;;;;549.75;508.58;;;;;;;12.65;77.52;99217.72;5039930;28;20565;-61
2022/04/30 07:07:05;;;;;;;552.72;512.40;;;;;;;12.74;78.44;99209.84;5042166;28;20067;-61
2022/04/30 07:09:33;;;;;;;557.72;517.10;;;;;;;12.82;76.00;99209.69;5040514;28;20025;-60
2022/04/30 07:12:05;;;;;;;554.55;513.65;;;;;;;13.05;75.65;99204.97;5036572;28;20083;-61
2022/04/30 07:14:32;;;;;;;579.25;537.53;;;;;;;13.17;72.89;99212.47;5037170;28;20055;-62
2022/04/30 07:16:58;;;;;;;589.08;547.65;;;;;;;13.18;73.59;99206.44;5037913;28;20025;-65
2022/04/30 07:19:23;;;;;;;591.38;549.35;;;;;;;13.35;70.54;99211.25;5037716;28;20139;-60
2022/04/30 07:21:48;;;;;;;584.63;543.08;;;;;;;13.30;69.48;99213.06;5037331;28;20033;-61
2022/04/30 07:24:14;;;;;;;598.05;556.50;;;;;;;13.41;69.18;99207.72;5041802;28;20040;-63
2022/04/30 07:26:40;;;;;;;609.60;567.42;;;;;;;13.57;68.77;99209.06;5038921;28;20036;-61
2022/04/30 07:29:05;;;;;;;610.45;568.50;;;;;;;13.75;71.72;99211.22;5038405;28;20036;-60
2022/04/30 07:31:30;;;;;;;613.78;572.58;;;;;;;13.96;72.19;99210.72;5038852;28;20029;-59
2022/04/30 07:33:56;;;;;;;616.63;575.85;;;;;;;14.00;71.74;99209.78;5042167;28;20033;-59
2022/04/30 07:36:21;;;;;;;617.47;576.80;;;;;;;14.14;71.37;99200.00;5042927;28;20029;-58
2022/04/30 07:38:47;;;;;;;633.60;591.85;;;;;;;14.09;70.64;99200.97;5038158;28;20040;-61
2022/04/30 07:41:12;;;;;;;646.10;604.13;;;;;;;14.19;71.95;99211.03;5037339;28;20082;-62
2022/04/30 07:43:38;;;;;;;642.28;600.33;;;;;;;14.00;70.92;99198.63;5040767;28;20036;-61
2022/04/30 07:46:03;;;;;;;638.67;596.38;;;;;;;14.00;71.44;99206.38;5040715;28;20373;-60
2022/04/30 07:48:29;;;;;;;638.22;596.83;;;;;;;14.09;70.79;99200.97;5037778;28;20059;-59
2022/04/30 07:50:57;;;;;;;641.58;600.47;;;;;;;14.30;71.83;99205.59;5038561;28;20487;-59
2022/04/30 07:53:23;;;;;;;636.13;595.03;;;;;;;14.20;66.76;99199.00;5041734;28;20067;-59
2022/04/30 07:55:49;;;;;;;662.42;620.25;;;;;;;14.39;65.30;99204.56;5038755;28;20029;-58
2022/04/30 07:58:14;;;;;;;650.03;608.92;;;;;;;14.69;64.63;99208.09;5037238;28;20033;-61
2022/04/30 08:00:40;;;;;;;663.20;621.67;;;;;;;14.80;65.40;99194.03;5040040;28;20033;-59
2022/04/30 08:03:05;;;;;;;669.45;627.67;;;;;;;15.09;64.91;99195.81;5041280;28;20487;-60
2022/04/30 08:05:31;;;;;;;661.58;620.53;;;;;;;15.09;61.95;99193.22;5041327;28;20059;-60
2022/04/30 08:07:57;;;;;;;662.10;621.40;;;;;;;15.32;61.16;99200.34;5038324;28;20048;-60
2022/04/30 08:10:23;;;;;;;656.22;615.83;;;;;;;15.33;61.52;99192.53;5039656;28;20039;-58
2022/04/30 08:12:55;;;;;;;672.55;631.55;;;;;;;15.74;61.90;99193.06;5041875;28;20328;-61
2022/04/30 08:15:24;;;;;;;675.65;634.10;;;;;;;15.90;58.82;99189.97;5040230;28;20060;-61
2022/04/30 08:17:51;;;;;;;677.85;637.33;;;;;;;16.05;57.50;99191.19;5038526;28;20197;-61
2022/04/30 08:20:17;;;;;;;667.83;627.95;;;;;;;15.99;57.73;99194.00;5038118;28;20447;-60
2022/04/30 08:22:42;;;;;;;684.83;643.92;;;;;;;15.88;57.41;99191.72;5038194;28;20040;-59
2022/04/30 08:25:08;;;;;;;661.25;621.38;;;;;;;16.00;58.07;99187.91;5039248;28;20037;-60
2022/04/30 08:27:34;;;;;;;676.90;636.15;;;;;;;15.81;57.11;99176.47;5038179;28;20025;-60
2022/04/30 08:29:59;;;;;;;667.17;627.35;;;;;;;15.88;59.36;99180.53;5041843;28;20036;-60
2022/04/30 08:32:26;;;;;;;677.30;637.17;;;;;;;15.81;59.70;99173.88;5042481;28;20033;-61
2022/04/30 08:34:52;;;;;;;688.45;647.30;;;;;;;16.00;59.18;99177.56;5039155;28;20398;-60
2022/04/30 08:37:17;;;;;;;676.83;636.15;;;;;;;16.24;58.76;99174.19;5040227;28;20025;-59
2022/04/30 08:39:44;;;;;;;685.08;643.95;;;;;;;16.46;57.96;99169.97;5045382;28;20048;-59
2022/04/30 08:42:10;;;;;;;674.20;634.25;;;;;;;16.41;57.94;99168.44;5041654;28;20025;-59
2022/04/30 08:44:38;;;;;;;681.58;641.15;;;;;;;15.99;57.20;99173.31;5042364;28;20106;-60
2022/04/30 08:47:04;;;;;;;709.38;666.47;;;;;;;15.98;57.71;99164.69;5041780;28;20179;-60
2022/04/30 08:49:33;;;;;;;689.80;649.60;;;;;;;16.08;56.32;99172.16;5028737;28;20462;-61
2022/04/30 08:51:59;;;;;;;703.83;662.45;;;;;;;16.08;56.34;99162.66;5045769;28;20024;-60
2022/04/30 08:54:25;;;;;;;700.65;659.08;;;;;;;16.19;55.98;99160.56;5041618;28;20044;-60
2022/04/30 08:56:52;;;;;;;706.65;664.20;;;;;;;16.39;55.86;99162.47;5042526;28;20065;-60
2022/04/30 08:59:18;;;;;;;685.47;645.10;;;;;;;16.40;57.22;99159.00;5045853;28;20037;-60
2022/04/30 09:01:49;;;;;;;697.00;655.92;;;;;;;16.49;57.14;99170.78;5044274;28;20036;-60
2022/04/30 09:04:14;;;;;;;692.92;651.65;;;;;;;16.24;54.97;99160.41;5041456;28;20121;-60
2022/04/30 09:06:47;;;;;;;684.08;643.75;;;;;;;16.19;55.89;99151.94;5042770;28;20020;-60
2022/04/30 09:09:25;;;;;;;696.10;654.65;;;;;;;16.46;56.73;99154.44;5045214;28;20033;-60
2022/04/30 09:11:53;;;;;;;699.88;658.15;;;;;;;16.58;57.00;99154.97;5043356;28;20060;-59
2022/04/30 09:14:26;;;;;;;712.55;669.50;;;;;;;16.78;58.09;99142.16;5040677;28;20072;-59
2022/04/30 09:17:05;;;;;;;705.38;663.92;;;;;;;16.83;56.23;99138.50;5044167;28;20139;-60
2022/04/30 09:19:51;;;;;;;744.38;700.65;;;;;;;17.03;56.02;99144.69;5045784;28;20045;-61
2022/04/30 09:22:27;;;;;;;732.20;688.67;;;;;;;16.90;55.00;99131.34;5041582;28;20112;-60
2022/04/30 09:24:53;;;;;;;718.25;675.75;;;;;;;17.01;55.88;99130.97;5041738;28;20037;-61
2022/04/30 09:27:19;;;;;;;707.50;665.72;;;;;;;17.08;55.51;99132.41;5045491;28;20403;-61
2022/04/30 09:29:45;;;;;;;731.95;688.72;;;;;;;17.21;55.85;99126.72;5042617;28;20032;-60
2022/04/30 09:32:21;;;;;;;729.97;686.58;;;;;;;17.34;56.10;99127.94;5041537;28;20033;-60
2022/04/30 09:37:42;;;;;;;758.63;713.83;;;;;;;17.67;55.25;99105.06;5044350;28;20036;-60
2022/04/30 09:40:26;;;;;;;715.88;673.47;;;;;;;17.60;54.82;99105.38;5043322;28;20048;-63
2022/04/30 09:42:51;;;;;;;751.65;706.97;;;;;;;17.78;55.95;99092.50;5041258;28;20041;-61
2022/04/30 09:45:31;;;;;;;738.60;695.45;;;;;;;17.78;52.44;99091.66;5043189;28;20372;-61
2022/04/30 09:47:58;;;;;;;722.90;680.80;;;;;;;17.81;52.07;99088.94;5045447;28;20039;-61
2022/04/30 09:55:56;;;;;;;733.03;690.28;;;;;;;18.08;49.94;99073.97;5046310;28;20054;-60
2022/04/30 09:58:26;;;;;;;717.13;675.28;;;;;;;18.22;51.54;99063.84;5026526;28;20036;-61
2022/04/30 10:00:57;;;;;;;854.40;795.60;;;;;;;18.25;49.21;99064.56;5042650;28;20028;-62
2022/04/30 10:03:28;;;;;;;861.53;805.50;;;;;;;18.35;49.87;99069.34;5041240;28;20040;-60
2022/04/30 10:06:01;;;;;;;862.58;807.63;;;;;;;18.37;51.83;99058.03;5045624;28;20383;-60
2022/04/30 10:08:29;;;;;;;861.97;804.00;;;;;;;18.74;48.84;99059.00;5025358;28;20040;-61
2022/04/30 10:11:05;;;;;;;866.22;812.45;;;;;;;18.33;46.24;99056.44;5041755;28;20049;-62
2022/04/30 10:13:49;;;;;;;865.40;807.75;;;;;;;18.35;44.84;99054.63;5043762;28;20032;-61
2022/04/30 10:16:25;;;;;;;661.00;622.67;;;;;;;18.68;45.28;99054.91;5044796;28;20427;-61
2022/04/30 10:19:15;;;;;;;657.92;619.83;;;;;;;18.70;44.43;99047.91;5022798;28;20646;-61
2022/04/30 10:21:41;;;;;;;669.58;630.97;;;;;;;18.80;44.77;99046.56;5041884;28;20034;-58
2022/04/30 10:24:09;;;;;;;655.05;617.08;;;;;;;18.98;44.52;99047.47;5044941;28;20032;-61
2022/04/30 10:26:36;;;;;;;696.58;655.83;;;;;;;19.18;44.68;99039.59;5046169;28;20068;-61
2022/04/30 10:29:12;;;;;;;658.13;619.80;;;;;;;19.15;42.63;99037.13;5040959;28;20038;-60
2022/04/30 10:31:44;;;;;;;664.90;626.17;;;;;;;19.24;44.25;99028.06;5024728;28;20029;-60
2022/04/30 10:34:11;;;;;;;672.45;633.40;;;;;;;19.29;43.32;99033.91;5044045;28;20111;-61
2022/04/30 10:36:38;;;;;;;653.90;615.72;;;;;;;19.47;45.47;99028.69;5039203;28;20036;-62
2022/04/30 10:39:09;;;;;;;699.15;657.90;;;;;;;19.51;44.17;99026.78;5039776;28;20434;-64
2022/04/30 10:41:50;;;;;;;701.35;660.30;;;;;;;19.61;42.54;99036.66;5042803;28;20036;-61
2022/04/30 10:44:15;;;;;;;700.92;659.97;;;;;;;19.56;42.03;99027.41;5044805;28;20479;-61
2022/04/30 10:46:48;;;;;;;699.92;658.47;;;;;;;19.47;41.40;99020.03;5041019;28;20036;-61
2022/04/30 10:49:14;;;;;;;724.13;682.08;;;;;;;19.54;43.25;99019.66;5040028;28;20435;-60
2022/04/30 10:51:44;;;;;;;715.13;673.03;;;;;;;19.55;42.29;99016.16;5043846;28;20040;-59
2022/04/30 10:54:19;;;;;;;751.58;707.17;;;;;;;19.44;41.83;99017.56;5042151;28;20427;-62
2022/04/30 10:56:46;;;;;;;730.10;686.55;;;;;;;19.43;42.70;99011.56;5039328;28;20041;-60
2022/04/30 10:59:21;;;;;;;731.28;687.75;;;;;;;19.58;41.41;99000.38;5039856;28;20505;-61
2022/04/30 11:01:50;;;;;;;736.67;693.33;;;;;;;19.58;40.64;98995.19;5041911;28;20112;-60
2022/04/30 11:04:16;;;;;;;742.47;698.58;;;;;;;19.60;41.64;98979.50;5042191;28;20465;-60
2022/04/30 11:06:43;;;;;;;732.92;689.28;;;;;;;19.99;43.09;98995.69;5038599;28;20052;-62
2022/04/30 11:09:09;;;;;;;766.65;721.35;;;;;;;19.96;41.53;98992.41;5038835;28;20439;-59
2022/04/30 11:11:36;;;;;;;747.15;702.78;;;;;;;19.81;40.06;98981.03;5038709;28;20144;-61
2022/04/30 11:14:09;;;;;;;735.83;692.47;;;;;;;19.69;41.16;98984.22;5040734;28;20040;-58
2022/04/30 11:16:46;;;;;;;737.20;693.38;;;;;;;19.66;40.55;98991.34;5038824;28;20583;-60
2022/04/30 11:19:24;;;;;;;748.55;704.15;;;;;;;19.86;41.06;98984.22;5040084;28;20033;-59
2022/04/30 11:21:51;;;;;;;759.13;714.70;;;;;;;19.89;40.44;98976.28;5034823;28;20223;-61
2022/04/30 11:24:26;;;;;;;740.95;697.08;;;;;;;19.83;43.46;98975.72;5039880;28;20035;-61
2022/04/30 11:26:59;;;;;;;716.53;674.03;;;;;;;19.97;40.12;98976.72;5039203;28;20482;-61
2022/04/30 11:29:26;;;;;;;728.40;685.10;;;;;;;19.98;41.29;98965.41;5041328;28;20037;-62
2022/04/30 11:31:53;;;;;;;738.78;694.60;;;;;;;20.13;40.44;98968.09;5037724;28;20550;-62
2022/04/30 11:34:20;;;;;;;737.53;693.78;;;;;;;20.07;40.52;98951.88;5037937;28;20069;-61